sensor_id;sensor_type;location;lat;lon;timestamp;temperature;humidity
12426;DHT22;6277;49.824;9.562;2023-07-30T00:01:42;22.20;64.00
12426;DHT22;6277;49.824;9.562;2023-07-30T00:04:07;22.20;64.00
12426;DHT22;6277;49.824;9.562;2023-07-30T00:06:33;22.20;64.00
12426;DHT22;6277;49.824;9.562;2023-07-30T00:08:58;22.10;64.00
12426;DHT22;6277;49.824;9.562;2023-07-30T00:11:24;22.10;64.00
12426;DHT22;6277;49.824;9.562;2023-07-30T00:13:50;22.00;64.00
12426;DHT22;6277;49.824;9.562;2023-07-30T00:16:15;22.00;64.10
12426;DHT22;6277;49.824;9.562;2023-07-30T00:18:41;22.00;64.20
12426;DHT22;6277;49.824;9.562;2023-07-30T00:21:06;22.00;64.30
12426;DHT22;6277;49.824;9.562;2023-07-30T00:23:32;21.90;64.30
12426;DHT22;6277;49.824;9.562;2023-07-30T00:25:57;21.90;64.30
12426;DHT22;6277;49.824;9.562;2023-07-30T00:28:23;21.80;64.30
12426;DHT22;6277;49.824;9.562;2023-07-30T00:30:48;21.80;64.30
12426;DHT22;6277;49.824;9.562;2023-07-30T00:33:14;21.70;64.30
12426;DHT22;6277;49.824;9.562;2023-07-30T00:35:39;21.60;64.30
12426;DHT22;6277;49.824;9.562;2023-07-30T00:38:05;21.60;64.50
12426;DHT22;6277;49.824;9.562;2023-07-30T00:40:30;21.50;64.60
12426;DHT22;6277;49.824;9.562;2023-07-30T00:42:56;21.40;64.80
12426;DHT22;6277;49.824;9.562;2023-07-30T00:45:22;21.40;65.00
12426;DHT22;6277;49.824;9.562;2023-07-30T00:47:47;21.30;65.00
12426;DHT22;6277;49.824;9.562;2023-07-30T00:50:14;21.30;65.10
12426;DHT22;6277;49.824;9.562;2023-07-30T00:52:40;21.20;65.30
12426;DHT22;6277;49.824;9.562;2023-07-30T00:55:07;21.10;65.30
12426;DHT22;6277;49.824;9.562;2023-07-30T00:57:33;21.10;66.30
12426;DHT22;6277;49.824;9.562;2023-07-30T00:59:59;21.00;65.90
12426;DHT22;6277;49.824;9.562;2023-07-30T01:02:28;20.90;66.00
12426;DHT22;6277;49.824;9.562;2023-07-30T01:04:54;20.90;66.30
12426;DHT22;6277;49.824;9.562;2023-07-30T01:07:20;20.90;66.40
12426;DHT22;6277;49.824;9.562;2023-07-30T01:09:45;20.90;66.50
12426;DHT22;6277;49.824;9.562;2023-07-30T01:12:11;20.80;66.50
12426;DHT22;6277;49.824;9.562;2023-07-30T01:14:37;20.80;66.50
12426;DHT22;6277;49.824;9.562;2023-07-30T01:17:04;20.70;66.70
12426;DHT22;6277;49.824;9.562;2023-07-30T01:19:29;20.70;67.00
12426;DHT22;6277;49.824;9.562;2023-07-30T01:21:56;20.60;66.90
12426;DHT22;6277;49.824;9.562;2023-07-30T01:24:21;20.60;67.10
12426;DHT22;6277;49.824;9.562;2023-07-30T01:26:52;20.60;67.30
12426;DHT22;6277;49.824;9.562;2023-07-30T01:29:25;20.50;67.80
12426;DHT22;6277;49.824;9.562;2023-07-30T01:31:56;20.50;67.80
12426;DHT22;6277;49.824;9.562;2023-07-30T01:34:23;20.50;68.00
12426;DHT22;6277;49.824;9.562;2023-07-30T01:36:51;20.50;68.00
12426;DHT22;6277;49.824;9.562;2023-07-30T01:39:18;20.50;68.10
12426;DHT22;6277;49.824;9.562;2023-07-30T01:41:44;20.50;68.00
12426;DHT22;6277;49.824;9.562;2023-07-30T01:44:10;20.50;68.10
12426;DHT22;6277;49.824;9.562;2023-07-30T01:46:35;20.50;68.10
12426;DHT22;6277;49.824;9.562;2023-07-30T01:49:01;20.50;68.20
12426;DHT22;6277;49.824;9.562;2023-07-30T01:51:26;20.50;68.30
12426;DHT22;6277;49.824;9.562;2023-07-30T01:53:52;20.50;68.40
12426;DHT22;6277;49.824;9.562;2023-07-30T01:56:17;20.50;68.40
12426;DHT22;6277;49.824;9.562;2023-07-30T01:58:43;20.50;68.50
12426;DHT22;6277;49.824;9.562;2023-07-30T02:01:09;20.50;68.50
12426;DHT22;6277;49.824;9.562;2023-07-30T02:03:34;20.50;68.70
12426;DHT22;6277;49.824;9.562;2023-07-30T02:06:00;20.50;69.50
12426;DHT22;6277;49.824;9.562;2023-07-30T02:08:25;20.50;68.90
12426;DHT22;6277;49.824;9.562;2023-07-30T02:10:58;20.50;69.00
12426;DHT22;6277;49.824;9.562;2023-07-30T02:13:24;20.50;69.80
12426;DHT22;6277;49.824;9.562;2023-07-30T02:15:50;20.50;69.10
12426;DHT22;6277;49.824;9.562;2023-07-30T02:18:16;20.50;69.20
12426;DHT22;6277;49.824;9.562;2023-07-30T02:20:41;20.60;69.30
12426;DHT22;6277;49.824;9.562;2023-07-30T02:23:07;20.60;69.30
12426;DHT22;6277;49.824;9.562;2023-07-30T02:25:33;20.60;69.30
12426;DHT22;6277;49.824;9.562;2023-07-30T02:28:00;20.60;69.30
12426;DHT22;6277;49.824;9.562;2023-07-30T02:30:26;20.60;69.60
12426;DHT22;6277;49.824;9.562;2023-07-30T02:32:52;20.60;69.60
12426;DHT22;6277;49.824;9.562;2023-07-30T02:35:17;20.60;69.70
12426;DHT22;6277;49.824;9.562;2023-07-30T02:37:43;20.60;69.90
12426;DHT22;6277;49.824;9.562;2023-07-30T02:40:09;20.60;70.00
12426;DHT22;6277;49.824;9.562;2023-07-30T02:42:34;20.60;70.20
12426;DHT22;6277;49.824;9.562;2023-07-30T02:45:00;20.60;70.30
12426;DHT22;6277;49.824;9.562;2023-07-30T02:47:25;20.60;70.40
12426;DHT22;6277;49.824;9.562;2023-07-30T02:49:51;20.60;70.50
12426;DHT22;6277;49.824;9.562;2023-07-30T02:52:16;20.60;70.60
12426;DHT22;6277;49.824;9.562;2023-07-30T02:54:42;20.70;70.60
12426;DHT22;6277;49.824;9.562;2023-07-30T02:57:07;20.70;70.60
12426;DHT22;6277;49.824;9.562;2023-07-30T02:59:33;20.70;70.70
12426;DHT22;6277;49.824;9.562;2023-07-30T03:02:03;20.70;71.00
12426;DHT22;6277;49.824;9.562;2023-07-30T03:04:30;20.70;70.80
12426;DHT22;6277;49.824;9.562;2023-07-30T03:06:56;20.70;70.80
12426;DHT22;6277;49.824;9.562;2023-07-30T03:09:21;20.70;71.00
12426;DHT22;6277;49.824;9.562;2023-07-30T03:11:48;20.70;71.00
12426;DHT22;6277;49.824;9.562;2023-07-30T03:14:14;20.70;71.00
12426;DHT22;6277;49.824;9.562;2023-07-30T03:16:40;20.80;71.40
12426;DHT22;6277;49.824;9.562;2023-07-30T03:19:05;20.80;71.30
12426;DHT22;6277;49.824;9.562;2023-07-30T03:21:31;20.80;71.30
12426;DHT22;6277;49.824;9.562;2023-07-30T03:23:56;20.80;71.20
12426;DHT22;6277;49.824;9.562;2023-07-30T03:26:22;20.80;71.20
12426;DHT22;6277;49.824;9.562;2023-07-30T03:28:47;20.80;71.20
12426;DHT22;6277;49.824;9.562;2023-07-30T03:31:13;20.80;71.30
12426;DHT22;6277;49.824;9.562;2023-07-30T03:33:39;20.80;71.30
12426;DHT22;6277;49.824;9.562;2023-07-30T03:36:09;20.70;71.20
12426;DHT22;6277;49.824;9.562;2023-07-30T03:38:35;20.70;71.30
12426;DHT22;6277;49.824;9.562;2023-07-30T03:41:00;20.70;71.30
12426;DHT22;6277;49.824;9.562;2023-07-30T03:43:26;20.70;71.30
12426;DHT22;6277;49.824;9.562;2023-07-30T03:45:51;20.70;71.40
12426;DHT22;6277;49.824;9.562;2023-07-30T03:48:17;20.70;71.40
12426;DHT22;6277;49.824;9.562;2023-07-30T03:50:42;20.60;71.30
12426;DHT22;6277;49.824;9.562;2023-07-30T03:53:08;20.60;71.30
12426;DHT22;6277;49.824;9.562;2023-07-30T03:55:33;20.60;71.30
12426;DHT22;6277;49.824;9.562;2023-07-30T03:57:59;20.60;71.50
12426;DHT22;6277;49.824;9.562;2023-07-30T04:00:24;20.60;71.60
12426;DHT22;6277;49.824;9.562;2023-07-30T04:02:50;20.50;71.60
12426;DHT22;6277;49.824;9.562;2023-07-30T04:05:15;20.50;71.60
12426;DHT22;6277;49.824;9.562;2023-07-30T04:07:41;20.50;71.60
12426;DHT22;6277;49.824;9.562;2023-07-30T04:10:07;20.50;71.60
12426;DHT22;6277;49.824;9.562;2023-07-30T04:12:33;20.50;71.70
12426;DHT22;6277;49.824;9.562;2023-07-30T04:14:59;20.50;71.60
12426;DHT22;6277;49.824;9.562;2023-07-30T04:17:24;20.50;71.50
12426;DHT22;6277;49.824;9.562;2023-07-30T04:19:50;20.40;71.50
12426;DHT22;6277;49.824;9.562;2023-07-30T04:22:15;20.40;71.40
12426;DHT22;6277;49.824;9.562;2023-07-30T04:24:41;20.40;71.40
12426;DHT22;6277;49.824;9.562;2023-07-30T04:27:07;20.40;71.50
12426;DHT22;6277;49.824;9.562;2023-07-30T04:29:32;20.40;71.50
12426;DHT22;6277;49.824;9.562;2023-07-30T04:31:58;20.40;71.70
12426;DHT22;6277;49.824;9.562;2023-07-30T04:34:23;20.40;71.80
12426;DHT22;6277;49.824;9.562;2023-07-30T04:36:49;20.30;71.80
12426;DHT22;6277;49.824;9.562;2023-07-30T04:39:14;20.30;71.90
12426;DHT22;6277;49.824;9.562;2023-07-30T04:41:40;20.30;72.00
12426;DHT22;6277;49.824;9.562;2023-07-30T04:44:05;20.30;72.10
12426;DHT22;6277;49.824;9.562;2023-07-30T04:46:31;20.30;72.10
12426;DHT22;6277;49.824;9.562;2023-07-30T04:48:58;20.20;72.20
12426;DHT22;6277;49.824;9.562;2023-07-30T04:51:24;20.20;72.30
12426;DHT22;6277;49.824;9.562;2023-07-30T04:53:49;20.20;72.40
12426;DHT22;6277;49.824;9.562;2023-07-30T04:56:15;20.30;72.60
12426;DHT22;6277;49.824;9.562;2023-07-30T04:58:40;20.30;73.30
12426;DHT22;6277;49.824;9.562;2023-07-30T05:01:06;20.30;72.80
12426;DHT22;6277;49.824;9.562;2023-07-30T05:03:31;20.30;72.90
12426;DHT22;6277;49.824;9.562;2023-07-30T05:05:57;20.30;72.90
12426;DHT22;6277;49.824;9.562;2023-07-30T05:08:22;20.30;73.10
12426;DHT22;6277;49.824;9.562;2023-07-30T05:10:48;20.30;73.30
12426;DHT22;6277;49.824;9.562;2023-07-30T05:13:13;20.30;73.40
12426;DHT22;6277;49.824;9.562;2023-07-30T05:15:39;20.40;73.50
12426;DHT22;6277;49.824;9.562;2023-07-30T05:18:04;20.40;73.80
12426;DHT22;6277;49.824;9.562;2023-07-30T05:20:30;20.50;74.60
12426;DHT22;6277;49.824;9.562;2023-07-30T05:22:56;20.60;74.10
12426;DHT22;6277;49.824;9.562;2023-07-30T05:25:21;20.60;74.30
12426;DHT22;6277;49.824;9.562;2023-07-30T05:27:48;20.80;74.40
12426;DHT22;6277;49.824;9.562;2023-07-30T05:30:13;20.90;74.50
12426;DHT22;6277;49.824;9.562;2023-07-30T05:32:39;21.00;74.40
12426;DHT22;6277;49.824;9.562;2023-07-30T05:35:05;21.10;74.40
12426;DHT22;6277;49.824;9.562;2023-07-30T05:37:31;21.20;74.40
12426;DHT22;6277;49.824;9.562;2023-07-30T05:39:56;21.30;74.30
12426;DHT22;6277;49.824;9.562;2023-07-30T05:42:22;21.40;74.10
12426;DHT22;6277;49.824;9.562;2023-07-30T05:44:47;21.50;74.00
12426;DHT22;6277;49.824;9.562;2023-07-30T05:47:13;21.60;74.00
12426;DHT22;6277;49.824;9.562;2023-07-30T05:49:38;21.70;74.00
12426;DHT22;6277;49.824;9.562;2023-07-30T05:52:04;21.80;73.80
12426;DHT22;6277;49.824;9.562;2023-07-30T05:54:30;21.90;73.70
12426;DHT22;6277;49.824;9.562;2023-07-30T05:56:56;22.00;73.70
12426;DHT22;6277;49.824;9.562;2023-07-30T05:59:21;22.10;73.60
12426;DHT22;6277;49.824;9.562;2023-07-30T06:01:47;22.20;73.50
12426;DHT22;6277;49.824;9.562;2023-07-30T06:04:12;22.20;73.40
12426;DHT22;6277;49.824;9.562;2023-07-30T06:06:38;22.30;73.40
12426;DHT22;6277;49.824;9.562;2023-07-30T06:09:03;22.40;73.20
12426;DHT22;6277;49.824;9.562;2023-07-30T06:11:29;22.50;73.20
12426;DHT22;6277;49.824;9.562;2023-07-30T06:13:54;22.60;73.10
12426;DHT22;6277;49.824;9.562;2023-07-30T06:16:20;22.60;73.00
12426;DHT22;6277;49.824;9.562;2023-07-30T06:18:46;22.70;73.10
12426;DHT22;6277;49.824;9.562;2023-07-30T06:21:12;22.80;73.10
12426;DHT22;6277;49.824;9.562;2023-07-30T06:23:37;22.90;73.10
12426;DHT22;6277;49.824;9.562;2023-07-30T06:26:03;23.00;72.90
12426;DHT22;6277;49.824;9.562;2023-07-30T06:28:28;23.20;72.80
12426;DHT22;6277;49.824;9.562;2023-07-30T06:30:54;23.30;72.70
12426;DHT22;6277;49.824;9.562;2023-07-30T06:33:19;23.40;72.40
12426;DHT22;6277;49.824;9.562;2023-07-30T06:35:45;23.40;72.20
12426;DHT22;6277;49.824;9.562;2023-07-30T06:38:10;23.50;71.90
12426;DHT22;6277;49.824;9.562;2023-07-30T06:40:36;23.60;71.70
12426;DHT22;6277;49.824;9.562;2023-07-30T06:43:01;23.60;71.40
12426;DHT22;6277;49.824;9.562;2023-07-30T06:45:27;23.60;71.30
12426;DHT22;6277;49.824;9.562;2023-07-30T06:47:53;23.60;71.80
12426;DHT22;6277;49.824;9.562;2023-07-30T06:50:19;23.60;70.90
12426;DHT22;6277;49.824;9.562;2023-07-30T06:52:44;23.60;70.80
12426;DHT22;6277;49.824;9.562;2023-07-30T06:55:10;23.50;70.70
12426;DHT22;6277;49.824;9.562;2023-07-30T06:57:35;23.50;70.70
12426;DHT22;6277;49.824;9.562;2023-07-30T07:00:01;23.50;70.70
12426;DHT22;6277;49.824;9.562;2023-07-30T07:02:27;23.50;70.70
12426;DHT22;6277;49.824;9.562;2023-07-30T07:04:54;23.50;70.70
12426;DHT22;6277;49.824;9.562;2023-07-30T07:07:19;23.50;70.50
12426;DHT22;6277;49.824;9.562;2023-07-30T07:09:45;23.50;70.50
12426;DHT22;6277;49.824;9.562;2023-07-30T07:12:11;23.50;70.40
12426;DHT22;6277;49.824;9.562;2023-07-30T07:14:36;23.50;69.90
12426;DHT22;6277;49.824;9.562;2023-07-30T07:17:02;23.50;69.60
12426;DHT22;6277;49.824;9.562;2023-07-30T07:19:28;23.50;69.40
12426;DHT22;6277;49.824;9.562;2023-07-30T07:21:54;23.50;69.30
12426;DHT22;6277;49.824;9.562;2023-07-30T07:24:19;23.50;69.20
12426;DHT22;6277;49.824;9.562;2023-07-30T07:26:45;23.60;69.10
12426;DHT22;6277;49.824;9.562;2023-07-30T07:29:10;23.60;68.80
12426;DHT22;6277;49.824;9.562;2023-07-30T07:31:36;23.60;68.70
12426;DHT22;6277;49.824;9.562;2023-07-30T07:34:01;23.60;69.20
12426;DHT22;6277;49.824;9.562;2023-07-30T07:36:27;23.60;68.30
12426;DHT22;6277;49.824;9.562;2023-07-30T07:38:52;23.60;68.00
12426;DHT22;6277;49.824;9.562;2023-07-30T07:41:18;23.60;67.80
12426;DHT22;6277;49.824;9.562;2023-07-30T07:43:45;23.60;67.60
12426;DHT22;6277;49.824;9.562;2023-07-30T07:46:11;23.60;67.50
12426;DHT22;6277;49.824;9.562;2023-07-30T07:48:41;23.70;67.80
12426;DHT22;6277;49.824;9.562;2023-07-30T07:51:08;23.70;67.50
12426;DHT22;6277;49.824;9.562;2023-07-30T07:53:34;23.70;67.40
12426;DHT22;6277;49.824;9.562;2023-07-30T07:56:00;23.80;67.30
12426;DHT22;6277;49.824;9.562;2023-07-30T07:58:25;23.80;67.30
12426;DHT22;6277;49.824;9.562;2023-07-30T08:00:54;23.90;67.30
12426;DHT22;6277;49.824;9.562;2023-07-30T08:03:20;24.00;66.60
12426;DHT22;6277;49.824;9.562;2023-07-30T08:05:45;24.10;66.60
12426;DHT22;6277;49.824;9.562;2023-07-30T08:08:11;24.10;66.50
12426;DHT22;6277;49.824;9.562;2023-07-30T08:10:39;24.20;66.40
12426;DHT22;6277;49.824;9.562;2023-07-30T08:13:08;24.30;66.40
12426;DHT22;6277;49.824;9.562;2023-07-30T08:15:33;24.40;66.60
12426;DHT22;6277;49.824;9.562;2023-07-30T08:17:59;24.60;66.40
12426;DHT22;6277;49.824;9.562;2023-07-30T08:20:24;24.70;66.10
12426;DHT22;6277;49.824;9.562;2023-07-30T08:22:50;24.90;65.80
12426;DHT22;6277;49.824;9.562;2023-07-30T08:25:15;25.10;65.70
12426;DHT22;6277;49.824;9.562;2023-07-30T08:27:41;25.20;65.50
12426;DHT22;6277;49.824;9.562;2023-07-30T08:30:08;25.50;65.60
12426;DHT22;6277;49.824;9.562;2023-07-30T08:32:33;25.70;65.20
12426;DHT22;6277;49.824;9.562;2023-07-30T08:34:59;25.80;64.70
12426;DHT22;6277;49.824;9.562;2023-07-30T08:37:24;26.00;64.10
12426;DHT22;6277;49.824;9.562;2023-07-30T08:39:51;26.20;64.10
12426;DHT22;6277;49.824;9.562;2023-07-30T08:42:16;26.30;63.90
12426;DHT22;6277;49.824;9.562;2023-07-30T08:44:42;26.50;63.80
12426;DHT22;6277;49.824;9.562;2023-07-30T08:47:08;26.70;63.40
12426;DHT22;6277;49.824;9.562;2023-07-30T08:49:34;26.80;62.60
12426;DHT22;6277;49.824;9.562;2023-07-30T08:52:00;26.90;62.20
12426;DHT22;6277;49.824;9.562;2023-07-30T08:54:30;27.00;61.60
12426;DHT22;6277;49.824;9.562;2023-07-30T08:56:57;27.10;60.80
12426;DHT22;6277;49.824;9.562;2023-07-30T08:59:24;27.00;60.60
12426;DHT22;6277;49.824;9.562;2023-07-30T09:01:51;27.00;60.80
12426;DHT22;6277;49.824;9.562;2023-07-30T09:04:18;26.80;60.60
12426;DHT22;6277;49.824;9.562;2023-07-30T09:06:47;26.60;60.30
12426;DHT22;6277;49.824;9.562;2023-07-30T09:09:13;26.30;60.10
12426;DHT22;6277;49.824;9.562;2023-07-30T09:11:39;26.00;60.20
12426;DHT22;6277;49.824;9.562;2023-07-30T09:14:06;25.70;60.80
12426;DHT22;6277;49.824;9.562;2023-07-30T09:16:32;25.50;61.30
12426;DHT22;6277;49.824;9.562;2023-07-30T09:18:57;25.30;62.00
12426;DHT22;6277;49.824;9.562;2023-07-30T09:21:33;25.20;62.60
12426;DHT22;6277;49.824;9.562;2023-07-30T09:24:03;25.00;63.00
12426;DHT22;6277;49.824;9.562;2023-07-30T09:26:45;25.00;63.40
12426;DHT22;6277;49.824;9.562;2023-07-30T09:29:12;25.00;63.30
12426;DHT22;6277;49.824;9.562;2023-07-30T09:31:50;25.00;63.80
12426;DHT22;6277;49.824;9.562;2023-07-30T09:34:23;25.00;64.30
12426;DHT22;6277;49.824;9.562;2023-07-30T09:36:53;25.20;64.60
12426;DHT22;6277;49.824;9.562;2023-07-30T09:39:26;25.30;64.40
12426;DHT22;6277;49.824;9.562;2023-07-30T09:41:53;25.40;64.60
12426;DHT22;6277;49.824;9.562;2023-07-30T09:44:24;25.60;65.00
12426;DHT22;6277;49.824;9.562;2023-07-30T09:46:50;25.90;65.20
12426;DHT22;6277;49.824;9.562;2023-07-30T09:49:16;26.00;65.00
12426;DHT22;6277;49.824;9.562;2023-07-30T09:51:42;26.30;65.60
12426;DHT22;6277;49.824;9.562;2023-07-30T09:54:09;26.50;64.70
12426;DHT22;6277;49.824;9.562;2023-07-30T09:56:36;26.70;64.50
12426;DHT22;6277;49.824;9.562;2023-07-30T09:59:06;26.80;63.80
12426;DHT22;6277;49.824;9.562;2023-07-30T10:01:41;27.00;63.60
12426;DHT22;6277;49.824;9.562;2023-07-30T10:04:09;27.20;63.20
12426;DHT22;6277;49.824;9.562;2023-07-30T10:06:39;27.30;63.10
12426;DHT22;6277;49.824;9.562;2023-07-30T10:09:07;27.40;62.10
12426;DHT22;6277;49.824;9.562;2023-07-30T10:11:35;27.50;62.00
12426;DHT22;6277;49.824;9.562;2023-07-30T10:14:01;27.50;61.90
12426;DHT22;6277;49.824;9.562;2023-07-30T10:16:30;27.60;62.00
12426;DHT22;6277;49.824;9.562;2023-07-30T10:18:57;27.70;61.60
12426;DHT22;6277;49.824;9.562;2023-07-30T10:21:24;27.70;61.30
12426;DHT22;6277;49.824;9.562;2023-07-30T10:23:59;27.80;61.30
12426;DHT22;6277;49.824;9.562;2023-07-30T10:26:37;27.80;60.50
12426;DHT22;6277;49.824;9.562;2023-07-30T10:29:17;27.90;60.20
12426;DHT22;6277;49.824;9.562;2023-07-30T10:31:54;27.90;58.40
12426;DHT22;6277;49.824;9.562;2023-07-30T10:34:46;27.90;58.70
12426;DHT22;6277;49.824;9.562;2023-07-30T10:37:18;27.80;58.50
12426;DHT22;6277;49.824;9.562;2023-07-30T10:39:44;27.60;57.90
12426;DHT22;6277;49.824;9.562;2023-07-30T10:42:13;27.50;58.30
12426;DHT22;6277;49.824;9.562;2023-07-30T10:44:43;27.40;58.00
12426;DHT22;6277;49.824;9.562;2023-07-30T10:47:09;27.30;58.00
12426;DHT22;6277;49.824;9.562;2023-07-30T10:49:39;27.10;58.00
12426;DHT22;6277;49.824;9.562;2023-07-30T10:52:12;27.00;58.20
12426;DHT22;6277;49.824;9.562;2023-07-30T10:54:37;26.90;58.00
12426;DHT22;6277;49.824;9.562;2023-07-30T10:57:04;26.80;58.30
12426;DHT22;6277;49.824;9.562;2023-07-30T10:59:38;26.70;58.20
12426;DHT22;6277;49.824;9.562;2023-07-30T11:02:04;26.60;57.50
12426;DHT22;6277;49.824;9.562;2023-07-30T11:04:34;26.50;56.80
12426;DHT22;6277;49.824;9.562;2023-07-30T11:06:59;26.30;56.50
12426;DHT22;6277;49.824;9.562;2023-07-30T11:09:26;26.10;55.90
12426;DHT22;6277;49.824;9.562;2023-07-30T11:11:54;26.00;55.80
12426;DHT22;6277;49.824;9.562;2023-07-30T11:14:24;25.70;55.10
12426;DHT22;6277;49.824;9.562;2023-07-30T11:16:57;25.50;55.20
12426;DHT22;6277;49.824;9.562;2023-07-30T11:19:27;25.20;55.30
12426;DHT22;6277;49.824;9.562;2023-07-30T11:21:54;25.00;55.50
12426;DHT22;6277;49.824;9.562;2023-07-30T11:24:21;24.80;55.80
12426;DHT22;6277;49.824;9.562;2023-07-30T11:26:59;24.60;56.00
12426;DHT22;6277;49.824;9.562;2023-07-30T11:29:26;24.50;56.20
12426;DHT22;6277;49.824;9.562;2023-07-30T11:31:56;24.40;56.80
12426;DHT22;6277;49.824;9.562;2023-07-30T11:34:22;24.30;57.20
12426;DHT22;6277;49.824;9.562;2023-07-30T11:36:47;24.20;57.10
12426;DHT22;6277;49.824;9.562;2023-07-30T11:39:13;24.20;57.50
12426;DHT22;6277;49.824;9.562;2023-07-30T11:41:39;24.20;57.70
12426;DHT22;6277;49.824;9.562;2023-07-30T11:44:05;24.30;57.30
12426;DHT22;6277;49.824;9.562;2023-07-30T11:46:31;24.40;56.70
12426;DHT22;6277;49.824;9.562;2023-07-30T11:49:15;24.40;57.10
12426;DHT22;6277;49.824;9.562;2023-07-30T11:51:43;24.50;57.70
12426;DHT22;6277;49.824;9.562;2023-07-30T11:54:18;24.60;57.00
12426;DHT22;6277;49.824;9.562;2023-07-30T11:56:44;24.70;56.40
12426;DHT22;6277;49.824;9.562;2023-07-30T11:59:10;24.70;56.80
12426;DHT22;6277;49.824;9.562;2023-07-30T12:01:36;24.60;56.50
12426;DHT22;6277;49.824;9.562;2023-07-30T12:04:05;24.60;56.60
12426;DHT22;6277;49.824;9.562;2023-07-30T12:06:43;24.60;56.00
12426;DHT22;6277;49.824;9.562;2023-07-30T12:09:17;24.50;55.10
12426;DHT22;6277;49.824;9.562;2023-07-30T12:11:53;24.50;55.30
12426;DHT22;6277;49.824;9.562;2023-07-30T12:14:22;24.50;55.00
12426;DHT22;6277;49.824;9.562;2023-07-30T12:16:50;24.40;55.30
12426;DHT22;6277;49.824;9.562;2023-07-30T12:19:16;24.40;55.20
12426;DHT22;6277;49.824;9.562;2023-07-30T12:21:42;24.40;55.30
12426;DHT22;6277;49.824;9.562;2023-07-30T12:24:07;24.40;55.40
12426;DHT22;6277;49.824;9.562;2023-07-30T12:26:33;24.50;55.40
12426;DHT22;6277;49.824;9.562;2023-07-30T12:28:59;24.50;54.80
12426;DHT22;6277;49.824;9.562;2023-07-30T12:31:24;24.50;55.10
12426;DHT22;6277;49.824;9.562;2023-07-30T12:33:50;24.50;54.80
12426;DHT22;6277;49.824;9.562;2023-07-30T12:36:15;24.60;54.70
12426;DHT22;6277;49.824;9.562;2023-07-30T12:38:41;24.70;54.50
12426;DHT22;6277;49.824;9.562;2023-07-30T12:41:06;24.70;54.60
12426;DHT22;6277;49.824;9.562;2023-07-30T12:43:32;24.80;54.80
12426;DHT22;6277;49.824;9.562;2023-07-30T12:45:57;24.90;54.40
12426;DHT22;6277;49.824;9.562;2023-07-30T12:48:23;25.00;54.30
12426;DHT22;6277;49.824;9.562;2023-07-30T12:50:48;25.10;53.80
12426;DHT22;6277;49.824;9.562;2023-07-30T12:53:14;25.10;53.90
12426;DHT22;6277;49.824;9.562;2023-07-30T12:55:39;25.20;53.10
12426;DHT22;6277;49.824;9.562;2023-07-30T12:58:05;25.20;53.40
12426;DHT22;6277;49.824;9.562;2023-07-30T13:00:32;25.20;53.00
12426;DHT22;6277;49.824;9.562;2023-07-30T13:02:58;25.30;52.60
12426;DHT22;6277;49.824;9.562;2023-07-30T13:05:23;25.20;52.40
12426;DHT22;6277;49.824;9.562;2023-07-30T13:07:49;25.20;52.20
12426;DHT22;6277;49.824;9.562;2023-07-30T13:10:15;25.20;51.90
12426;DHT22;6277;49.824;9.562;2023-07-30T13:12:40;25.20;52.10
12426;DHT22;6277;49.824;9.562;2023-07-30T13:15:06;25.20;52.40
12426;DHT22;6277;49.824;9.562;2023-07-30T13:17:32;25.30;52.10
12426;DHT22;6277;49.824;9.562;2023-07-30T13:19:58;25.40;51.80
12426;DHT22;6277;49.824;9.562;2023-07-30T13:22:23;25.50;51.80
12426;DHT22;6277;49.824;9.562;2023-07-30T13:24:49;25.60;51.20
12426;DHT22;6277;49.824;9.562;2023-07-30T13:27:15;25.60;51.20
12426;DHT22;6277;49.824;9.562;2023-07-30T13:29:40;25.70;50.40
12426;DHT22;6277;49.824;9.562;2023-07-30T13:32:06;25.70;49.90
12426;DHT22;6277;49.824;9.562;2023-07-30T13:34:32;25.70;49.30
12426;DHT22;6277;49.824;9.562;2023-07-30T13:36:57;25.70;49.10
12426;DHT22;6277;49.824;9.562;2023-07-30T13:39:23;25.70;49.50
12426;DHT22;6277;49.824;9.562;2023-07-30T13:41:48;25.70;49.70
12426;DHT22;6277;49.824;9.562;2023-07-30T13:44:14;25.60;49.60
12426;DHT22;6277;49.824;9.562;2023-07-30T13:46:40;25.60;49.00
12426;DHT22;6277;49.824;9.562;2023-07-30T13:49:09;25.60;49.50
12426;DHT22;6277;49.824;9.562;2023-07-30T13:51:37;25.60;49.40
12426;DHT22;6277;49.824;9.562;2023-07-30T13:54:03;25.70;49.30
12426;DHT22;6277;49.824;9.562;2023-07-30T13:56:30;25.70;49.00
12426;DHT22;6277;49.824;9.562;2023-07-30T13:58:56;25.70;48.50
12426;DHT22;6277;49.824;9.562;2023-07-30T14:01:22;25.80;48.60
12426;DHT22;6277;49.824;9.562;2023-07-30T14:03:47;25.80;48.80
12426;DHT22;6277;49.824;9.562;2023-07-30T14:06:13;25.80;48.00
12426;DHT22;6277;49.824;9.562;2023-07-30T14:08:39;25.90;47.40
12426;DHT22;6277;49.824;9.562;2023-07-30T14:11:04;25.80;47.80
12426;DHT22;6277;49.824;9.562;2023-07-30T14:13:30;25.80;47.70
12426;DHT22;6277;49.824;9.562;2023-07-30T14:15:55;25.80;47.20
12426;DHT22;6277;49.824;9.562;2023-07-30T14:18:22;25.80;46.30
12426;DHT22;6277;49.824;9.562;2023-07-30T14:20:47;25.80;46.60
12426;DHT22;6277;49.824;9.562;2023-07-30T14:23:13;25.70;46.80
12426;DHT22;6277;49.824;9.562;2023-07-30T14:25:39;25.80;46.40
12426;DHT22;6277;49.824;9.562;2023-07-30T14:28:04;25.80;46.60
12426;DHT22;6277;49.824;9.562;2023-07-30T14:30:30;25.90;46.40
12426;DHT22;6277;49.824;9.562;2023-07-30T14:32:56;26.00;45.60
12426;DHT22;6277;49.824;9.562;2023-07-30T14:35:21;26.00;45.20
12426;DHT22;6277;49.824;9.562;2023-07-30T14:37:47;26.00;45.30
12426;DHT22;6277;49.824;9.562;2023-07-30T14:40:14;26.10;45.60
12426;DHT22;6277;49.824;9.562;2023-07-30T14:42:39;26.20;45.80
12426;DHT22;6277;49.824;9.562;2023-07-30T14:45:06;26.30;45.50
12426;DHT22;6277;49.824;9.562;2023-07-30T14:47:31;26.30;45.50
12426;DHT22;6277;49.824;9.562;2023-07-30T14:49:58;26.40;45.40
12426;DHT22;6277;49.824;9.562;2023-07-30T14:52:24;26.50;44.90
12426;DHT22;6277;49.824;9.562;2023-07-30T14:54:49;26.60;44.60
12426;DHT22;6277;49.824;9.562;2023-07-30T14:57:16;26.70;44.60
12426;DHT22;6277;49.824;9.562;2023-07-30T14:59:41;26.80;44.20
12426;DHT22;6277;49.824;9.562;2023-07-30T15:02:07;26.80;43.80
12426;DHT22;6277;49.824;9.562;2023-07-30T15:04:32;26.90;43.90
12426;DHT22;6277;49.824;9.562;2023-07-30T15:06:58;27.00;44.20
12426;DHT22;6277;49.824;9.562;2023-07-30T15:09:24;27.20;44.40
12426;DHT22;6277;49.824;9.562;2023-07-30T15:11:49;27.30;44.40
12426;DHT22;6277;49.824;9.562;2023-07-30T15:14:15;27.50;44.10
12426;DHT22;6277;49.824;9.562;2023-07-30T15:16:40;27.60;43.70
12426;DHT22;6277;49.824;9.562;2023-07-30T15:19:06;27.70;44.00
12426;DHT22;6277;49.824;9.562;2023-07-30T15:21:31;27.70;43.30
12426;DHT22;6277;49.824;9.562;2023-07-30T15:23:57;27.70;42.90
12426;DHT22;6277;49.824;9.562;2023-07-30T15:26:26;27.80;42.90
12426;DHT22;6277;49.824;9.562;2023-07-30T15:28:52;27.90;43.30
12426;DHT22;6277;49.824;9.562;2023-07-30T15:31:18;28.00;43.20
12426;DHT22;6277;49.824;9.562;2023-07-30T15:33:44;28.10;42.90
12426;DHT22;6277;49.824;9.562;2023-07-30T15:36:09;28.20;42.50
12426;DHT22;6277;49.824;9.562;2023-07-30T15:38:35;28.30;42.20
12426;DHT22;6277;49.824;9.562;2023-07-30T15:41:00;28.40;42.40